EZS1251 LFSB-GMAD
Flight info
| Callsign | EZS1251 |
|---|---|
| Flight time | N/A |
| Altitude | 35000 |
| Route | OLBEN Z50 ROTOS Z669 VADAR DCT NINTU DCT MEBAK DCT REPSI DCT LERGA DCT MINSO DCT NARAK DCT AGN DCT MAQAB DCT TIVLI N869 ZAR Z245 CJN N10 SVL N857 KORNO UN857 IBALU UR724 DENOB R724 AGALI |
| Aircraft | A320/M-SDE2E3FGHIJ1RWXYZ/LB1 |
Departure
| Time | 2026-05-04 07:03 |
|---|---|
| Airport | EuroAirport Basel–Mulhouse–Freiburg (LFSB) |
Arrival
| Time | N/A |
|---|---|
| Airport | Al Massira Airport (GMAD) |
| Time | Latitude | Longitude | Altitude | Speed | Heading |
|---|---|---|---|---|---|
| 2026-05-04 06:30 | 47.59866 | 7.53110 | 887 ft | 0 kts | 22° |
| 2026-05-04 06:52 | 47.59865 | 7.53110 | 886 ft | 2 kts | 22° |
| 2026-05-04 06:52 | 47.59842 | 7.53097 | 886 ft | 4 kts | 17° |
| 2026-05-04 06:52 | 47.59816 | 7.53087 | 886 ft | 4 kts | 9° |
| 2026-05-04 06:53 | 47.59789 | 7.53084 | 886 ft | 4 kts | 351° |
| 2026-05-04 06:53 | 47.59768 | 7.53096 | 886 ft | 1 kts | 313° |
| 2026-05-04 06:53 | 47.59768 | 7.53097 | 886 ft | 0 kts | 313° |
| 2026-05-04 06:56 | 47.59774 | 7.53059 | 886 ft | 8 kts | 263° |
| 2026-05-04 06:57 | 47.59943 | 7.52551 | 887 ft | 22 kts | 335° |
| 2026-05-04 06:58 | 47.60039 | 7.52485 | 887 ft | 16 kts | 335° |
| 2026-05-04 06:58 | 47.60160 | 7.52402 | 887 ft | 21 kts | 335° |
| 2026-05-04 06:58 | 47.60291 | 7.52311 | 887 ft | 21 kts | 335° |
| 2026-05-04 06:58 | 47.60427 | 7.52217 | 887 ft | 22 kts | 335° |
| 2026-05-04 06:59 | 47.60567 | 7.52119 | 886 ft | 23 kts | 334° |
| 2026-05-04 06:59 | 47.60711 | 7.52018 | 886 ft | 23 kts | 335° |
| 2026-05-04 06:59 | 47.60858 | 7.51916 | 886 ft | 24 kts | 335° |
| 2026-05-04 06:59 | 47.61003 | 7.51813 | 886 ft | 22 kts | 334° |
| 2026-05-04 07:01 | 47.61800 | 7.51114 | 887 ft | 9 kts | 250° |
| 2026-05-04 07:01 | 47.61776 | 7.51033 | 886 ft | 8 kts | 244° |
| 2026-05-04 07:02 | 47.61739 | 7.51010 | 886 ft | 5 kts | 163° |
| 2026-05-04 07:02 | 47.61729 | 7.51017 | 886 ft | 0 kts | 154° |
| 2026-05-04 07:02 | 47.61662 | 7.51065 | 887 ft | 40 kts | 155° |
| 2026-05-04 07:02 | 47.61397 | 7.51249 | 885 ft | 85 kts | 155° |
| 2026-05-04 07:03 | 47.60678 | 7.51746 | 888 ft | 140 kts | 155° |
| 2026-05-04 07:03 | 47.59674 | 7.52446 | 1040 ft | 169 kts | 155° |
| 2026-05-04 07:03 | 47.58616 | 7.53188 | 1765 ft | 168 kts | 157° |
| 2026-05-04 07:03 | 47.57523 | 7.53940 | 2279 ft | 184 kts | 158° |
| 2026-05-04 07:04 | 47.56299 | 7.54776 | 2540 ft | 205 kts | 156° |
| 2026-05-04 07:04 | 47.54934 | 7.55716 | 2774 ft | 228 kts | 154° |
| 2026-05-04 07:04 | 47.53414 | 7.56768 | 3073 ft | 253 kts | 154° |
| 2026-05-04 07:04 | 47.51763 | 7.57914 | 3595 ft | 268 kts | 154° |
| 2026-05-04 07:05 | 47.50052 | 7.59088 | 4398 ft | 273 kts | 157° |
| 2026-05-04 07:05 | 47.48184 | 7.59642 | 5217 ft | 277 kts | 181° |
| 2026-05-04 07:05 | 47.46309 | 7.58988 | 6091 ft | 281 kts | 205° |
| 2026-05-04 07:05 | 47.44604 | 7.57548 | 6930 ft | 283 kts | 208° |
| 2026-05-04 07:06 | 47.41234 | 7.54549 | 8642 ft | 282 kts | 209° |
| 2026-05-04 07:06 | 47.39556 | 7.53055 | 9520 ft | 281 kts | 209° |
| 2026-05-04 07:06 | 47.37877 | 7.51568 | 10276 ft | 284 kts | 209° |
| 2026-05-04 07:07 | 47.36112 | 7.50018 | 10519 ft | 307 kts | 209° |
| 2026-05-04 07:08 | 47.22429 | 7.38006 | 14748 ft | 335 kts | 211° |
| 2026-05-04 07:09 | 47.20421 | 7.36250 | 15340 ft | 337 kts | 211° |
| 2026-05-04 07:09 | 47.18396 | 7.34485 | 15921 ft | 340 kts | 211° |
| 2026-05-04 07:09 | 47.16353 | 7.32711 | 16496 ft | 343 kts | 211° |
| 2026-05-04 07:09 | 47.14290 | 7.30917 | 17054 ft | 346 kts | 211° |
| 2026-05-04 07:10 | 47.12212 | 7.29108 | 17604 ft | 349 kts | 211° |
| 2026-05-04 07:10 | 47.10114 | 7.27284 | 18119 ft | 352 kts | 211° |
| 2026-05-04 07:12 | 46.94953 | 7.14166 | 21323 ft | 371 kts | 210° |
| 2026-05-04 07:12 | 46.92725 | 7.12239 | 21746 ft | 373 kts | 210° |
| 2026-05-04 07:12 | 46.90480 | 7.10304 | 22182 ft | 376 kts | 210° |
| 2026-05-04 07:12 | 46.88218 | 7.08357 | 22608 ft | 378 kts | 210° |
| 2026-05-04 07:13 | 46.85975 | 7.06430 | 23017 ft | 381 kts | 211° |
| 2026-05-04 07:13 | 46.83853 | 7.04106 | 23428 ft | 384 kts | 224° |
| 2026-05-04 07:13 | 46.82023 | 7.01244 | 23800 ft | 387 kts | 226° |
| 2026-05-04 07:14 | 46.74703 | 6.89577 | 25239 ft | 392 kts | 226° |
| 2026-05-04 07:14 | 46.72857 | 6.86642 | 25590 ft | 393 kts | 226° |
| 2026-05-04 07:15 | 46.71001 | 6.83704 | 25934 ft | 394 kts | 226° |
| 2026-05-04 07:15 | 46.69140 | 6.80766 | 26276 ft | 395 kts | 226° |
| 2026-05-04 07:15 | 46.67274 | 6.77817 | 26610 ft | 397 kts | 226° |
| 2026-05-04 07:15 | 46.65501 | 6.74730 | 26942 ft | 399 kts | 234° |
| 2026-05-04 07:16 | 46.64026 | 6.71291 | 27254 ft | 401 kts | 237° |
| 2026-05-04 07:16 | 46.62584 | 6.67814 | 27581 ft | 402 kts | 237° |
| 2026-05-04 07:16 | 46.61131 | 6.64328 | 27909 ft | 404 kts | 237° |
| 2026-05-04 07:16 | 46.59672 | 6.60835 | 28241 ft | 405 kts | 237° |
| 2026-05-04 07:17 | 46.58208 | 6.57335 | 28557 ft | 406 kts | 237° |
| 2026-05-04 07:17 | 46.56735 | 6.53825 | 28884 ft | 407 kts | 237° |
| 2026-05-04 07:17 | 46.55255 | 6.50306 | 29181 ft | 409 kts | 237° |
| 2026-05-04 07:17 | 46.53771 | 6.46771 | 29465 ft | 410 kts | 237° |
| 2026-05-04 07:18 | 46.52288 | 6.43236 | 29775 ft | 411 kts | 237° |
| 2026-05-04 07:18 | 46.50797 | 6.39688 | 30051 ft | 412 kts | 237° |
| 2026-05-04 07:18 | 46.49302 | 6.36141 | 30293 ft | 413 kts | 237° |
| 2026-05-04 07:18 | 46.47801 | 6.32580 | 30526 ft | 414 kts | 237° |
| 2026-05-04 07:19 | 46.46303 | 6.29034 | 30851 ft | 412 kts | 237° |
| 2026-05-04 07:19 | 46.44806 | 6.25494 | 31207 ft | 410 kts | 237° |
| 2026-05-04 07:19 | 46.43318 | 6.21974 | 31571 ft | 408 kts | 237° |
| 2026-05-04 07:19 | 46.41837 | 6.18473 | 31910 ft | 407 kts | 237° |
| 2026-05-04 07:20 | 46.40358 | 6.14986 | 32238 ft | 405 kts | 236° |
| 2026-05-04 07:20 | 46.38883 | 6.11518 | 32592 ft | 403 kts | 236° |
| 2026-05-04 07:20 | 46.37415 | 6.08075 | 32936 ft | 401 kts | 236° |
| 2026-05-04 07:20 | 46.35952 | 6.04648 | 33270 ft | 400 kts | 236° |
| 2026-05-04 07:22 | 46.25783 | 5.80903 | 35003 ft | 397 kts | 236° |
| 2026-05-04 07:22 | 46.24330 | 5.77518 | 35046 ft | 395 kts | 236° |
| 2026-05-04 07:23 | 46.21438 | 5.70805 | 35042 ft | 393 kts | 236° |
| 2026-05-04 07:23 | 46.18543 | 5.64109 | 35041 ft | 393 kts | 236° |
| 2026-05-04 07:24 | 46.15646 | 5.57415 | 35053 ft | 393 kts | 236° |
| 2026-05-04 07:24 | 46.12675 | 5.50796 | 35041 ft | 393 kts | 233° |
| 2026-05-04 07:26 | 46.00129 | 5.24967 | 35038 ft | 394 kts | 233° |
| 2026-05-04 07:27 | 45.97006 | 5.18503 | 35037 ft | 393 kts | 233° |
| 2026-05-04 07:27 | 45.93883 | 5.12043 | 35057 ft | 394 kts | 233° |
| 2026-05-04 07:28 | 45.90754 | 5.05594 | 35049 ft | 394 kts | 233° |
| 2026-05-04 07:28 | 45.87613 | 4.99145 | 35043 ft | 394 kts | 233° |
| 2026-05-04 07:29 | 45.84468 | 4.92714 | 35039 ft | 394 kts | 232° |
| 2026-05-04 07:29 | 45.81323 | 4.86290 | 35037 ft | 394 kts | 232° |
| 2026-05-04 07:30 | 45.78178 | 4.79867 | 35034 ft | 393 kts | 232° |
| 2026-05-04 07:30 | 45.75032 | 4.73462 | 35037 ft | 393 kts | 232° |
| 2026-05-04 07:31 | 45.71875 | 4.67065 | 35045 ft | 393 kts | 232° |
| 2026-05-04 07:33 | 45.59225 | 4.41530 | 35020 ft | 394 kts | 232° |
| 2026-05-04 07:33 | 45.56081 | 4.35199 | 35020 ft | 394 kts | 232° |
| 2026-05-04 07:34 | 45.52903 | 4.28832 | 35019 ft | 394 kts | 232° |
| 2026-05-04 07:34 | 45.49719 | 4.22466 | 35032 ft | 394 kts | 232° |
| 2026-05-04 07:35 | 45.46535 | 4.16122 | 35024 ft | 394 kts | 232° |
| 2026-05-04 07:35 | 45.43344 | 4.09787 | 35021 ft | 394 kts | 232° |
| 2026-05-04 07:36 | 45.40151 | 4.03459 | 35016 ft | 394 kts | 232° |
| 2026-05-04 07:38 | 45.27346 | 3.78185 | 35028 ft | 394 kts | 232° |
| 2026-05-04 07:38 | 45.24144 | 3.71867 | 35025 ft | 394 kts | 232° |
| 2026-05-04 07:39 | 45.21007 | 3.65489 | 35026 ft | 394 kts | 233° |
| 2026-05-04 07:39 | 45.17884 | 3.59093 | 35027 ft | 394 kts | 233° |
| 2026-05-04 07:40 | 45.14749 | 3.52717 | 35015 ft | 394 kts | 232° |
| 2026-05-04 07:40 | 45.11600 | 3.46362 | 35010 ft | 394 kts | 233° |
| 2026-05-04 07:41 | 45.08465 | 3.40063 | 35013 ft | 394 kts | 232° |
| 2026-05-04 07:41 | 45.05303 | 3.33717 | 35016 ft | 394 kts | 232° |
| 2026-05-04 07:42 | 45.02147 | 3.27386 | 35018 ft | 394 kts | 232° |
| 2026-05-04 07:42 | 44.98982 | 3.21047 | 35023 ft | 395 kts | 232° |
| 2026-05-04 07:43 | 44.95804 | 3.14712 | 35026 ft | 395 kts | 232° |
| 2026-05-04 07:43 | 44.92630 | 3.08389 | 35031 ft | 395 kts | 232° |
| 2026-05-04 07:44 | 44.89459 | 3.02080 | 35030 ft | 393 kts | 232° |
| 2026-05-04 07:44 | 44.86290 | 2.95794 | 35026 ft | 393 kts | 232° |
| 2026-05-04 07:45 | 44.83155 | 2.89473 | 35019 ft | 394 kts | 234° |
| 2026-05-04 07:45 | 44.80189 | 2.82989 | 35017 ft | 394 kts | 235° |
| 2026-05-04 07:46 | 44.76819 | 2.76998 | 35016 ft | 390 kts | 222° |
| 2026-05-04 07:46 | 44.72862 | 2.71777 | 35012 ft | 390 kts | 222° |
| 2026-05-04 07:47 | 44.68889 | 2.66581 | 35035 ft | 390 kts | 221° |
| 2026-05-04 07:49 | 44.53660 | 2.46757 | 35005 ft | 389 kts | 222° |
| 2026-05-04 07:49 | 44.49692 | 2.41596 | 35005 ft | 389 kts | 222° |
| 2026-05-04 07:50 | 44.45719 | 2.36450 | 35002 ft | 389 kts | 222° |
| 2026-05-04 07:50 | 44.41742 | 2.31314 | 35004 ft | 389 kts | 222° |
| 2026-05-04 07:51 | 44.37770 | 2.26185 | 35015 ft | 389 kts | 222° |
| 2026-05-04 07:51 | 44.33792 | 2.21052 | 35010 ft | 389 kts | 222° |
| 2026-05-04 07:52 | 44.29815 | 2.15945 | 35002 ft | 388 kts | 221° |
| 2026-05-04 07:52 | 44.25830 | 2.10854 | 34991 ft | 388 kts | 221° |
| 2026-05-04 07:54 | 44.09930 | 1.90546 | 35008 ft | 387 kts | 221° |
| 2026-05-04 07:55 | 44.05952 | 1.85494 | 34994 ft | 388 kts | 221° |
| 2026-05-04 07:55 | 44.01965 | 1.80440 | 34984 ft | 388 kts | 221° |
| 2026-05-04 07:56 | 43.97980 | 1.75399 | 34966 ft | 387 kts | 221° |
| 2026-05-04 07:56 | 43.93990 | 1.70375 | 34969 ft | 387 kts | 221° |
| 2026-05-04 07:57 | 43.90003 | 1.65351 | 34965 ft | 387 kts | 221° |
| 2026-05-04 07:57 | 43.86050 | 1.60361 | 34964 ft | 387 kts | 221° |
| 2026-05-04 07:58 | 43.82068 | 1.55360 | 34963 ft | 387 kts | 221° |
| 2026-05-04 07:58 | 43.78081 | 1.50366 | 34976 ft | 387 kts | 221° |
| 2026-05-04 07:59 | 43.74086 | 1.45364 | 34967 ft | 387 kts | 221° |
| 2026-05-04 07:59 | 43.70087 | 1.40365 | 34964 ft | 388 kts | 221° |
| 2026-05-04 08:00 | 43.66086 | 1.35369 | 34961 ft | 388 kts | 221° |
| 2026-05-04 08:02 | 43.50044 | 1.15485 | 34967 ft | 387 kts | 221° |
| 2026-05-04 08:02 | 43.46027 | 1.10537 | 35001 ft | 388 kts | 222° |
| 2026-05-04 08:03 | 43.42013 | 1.05591 | 34981 ft | 387 kts | 223° |
| 2026-05-04 08:03 | 43.38003 | 1.00646 | 34987 ft | 386 kts | 222° |
| 2026-05-04 08:04 | 43.34000 | 0.95727 | 34987 ft | 386 kts | 222° |
| 2026-05-04 08:04 | 43.30002 | 0.90823 | 34983 ft | 385 kts | 222° |
| 2026-05-04 08:05 | 43.26003 | 0.85930 | 34979 ft | 385 kts | 222° |
| 2026-05-04 08:05 | 43.22034 | 0.81077 | 34966 ft | 385 kts | 223° |
| 2026-05-04 08:06 | 43.18042 | 0.76204 | 35000 ft | 384 kts | 223° |
| 2026-05-04 08:06 | 43.14041 | 0.71344 | 34991 ft | 384 kts | 223° |
| 2026-05-04 08:08 | 42.98062 | 0.51990 | 34976 ft | 383 kts | 223° |
| 2026-05-04 08:11 | 42.80118 | 0.30426 | 35000 ft | 382 kts | 223° |
| 2026-05-04 08:11 | 42.74133 | 0.23253 | 34997 ft | 383 kts | 223° |
| 2026-05-04 08:12 | 42.70131 | 0.18473 | 34992 ft | 383 kts | 222° |
| 2026-05-04 08:12 | 42.66127 | 0.13707 | 34999 ft | 383 kts | 222° |
| 2026-05-04 08:13 | 42.62114 | 0.08933 | 34998 ft | 383 kts | 222° |
| 2026-05-04 08:13 | 42.58110 | 0.04197 | 35001 ft | 381 kts | 222° |
| 2026-05-04 08:14 | 42.54116 | -0.00525 | 35017 ft | 380 kts | 222° |
| 2026-05-04 08:16 | 42.38268 | -0.19232 | 35000 ft | 377 kts | 223° |
| 2026-05-04 08:16 | 42.34314 | -0.23876 | 35003 ft | 376 kts | 222° |
| 2026-05-04 08:17 | 42.30362 | -0.28499 | 35006 ft | 375 kts | 222° |
| 2026-05-04 08:17 | 42.26411 | -0.33119 | 34997 ft | 375 kts | 222° |
| 2026-05-04 08:19 | 42.10624 | -0.51504 | 35000 ft | 374 kts | 222° |
| 2026-05-04 08:20 | 42.06685 | -0.56066 | 35001 ft | 373 kts | 222° |
| 2026-05-04 08:20 | 42.02751 | -0.60629 | 35001 ft | 373 kts | 222° |
| 2026-05-04 08:21 | 41.98819 | -0.65189 | 34997 ft | 373 kts | 222° |
| 2026-05-04 08:21 | 41.94883 | -0.69738 | 34979 ft | 373 kts | 222° |
| 2026-05-04 08:22 | 41.90937 | -0.74278 | 34984 ft | 373 kts | 222° |
| 2026-05-04 08:24 | 41.75186 | -0.92357 | 34963 ft | 373 kts | 223° |
| 2026-05-04 08:24 | 41.71248 | -0.96864 | 34969 ft | 372 kts | 223° |
| 2026-05-04 08:25 | 41.67308 | -1.01364 | 34975 ft | 372 kts | 223° |
| 2026-05-04 08:25 | 41.63391 | -1.05893 | 34976 ft | 372 kts | 224° |
| 2026-05-04 08:27 | 41.48105 | -1.24428 | 34997 ft | 370 kts | 224° |
| 2026-05-04 08:28 | 41.44285 | -1.29009 | 34986 ft | 369 kts | 224° |
| 2026-05-04 08:28 | 41.40462 | -1.33571 | 34985 ft | 369 kts | 224° |
| 2026-05-04 08:29 | 41.36648 | -1.38135 | 34975 ft | 369 kts | 224° |
| 2026-05-04 08:31 | 41.21398 | -1.56313 | 34989 ft | 368 kts | 224° |
| 2026-05-04 08:33 | 41.06119 | -1.74400 | 34971 ft | 368 kts | 224° |
| 2026-05-04 08:35 | 40.90829 | -1.92386 | 34996 ft | 368 kts | 223° |
| 2026-05-04 08:35 | 40.87001 | -1.96869 | 34968 ft | 368 kts | 224° |